createdAt,value
2018-05-10T00:02:04.030Z,20.30
2018-05-10T00:04:31.621Z,20.20
2018-05-10T00:06:59.148Z,20.20
2018-05-10T00:09:26.873Z,20.10
2018-05-10T00:11:54.369Z,20.10
2018-05-10T00:14:22.782Z,20.00
2018-05-10T00:16:50.318Z,20.00
2018-05-10T00:19:18.601Z,20.00
2018-05-10T00:21:46.205Z,20.00
2018-05-10T00:24:13.759Z,20.40
2018-05-10T00:26:41.238Z,20.80
2018-05-10T00:29:09.536Z,20.70
2018-05-10T00:31:37.109Z,20.70
2018-05-10T00:34:05.063Z,20.50
2018-05-10T00:36:32.638Z,20.40
2018-05-10T00:39:00.939Z,20.20
2018-05-10T00:41:28.481Z,20.20
2018-05-10T00:43:56.032Z,20.20
2018-05-10T00:46:23.676Z,20.10
2018-05-10T00:48:51.259Z,20.10
2018-05-10T00:51:18.831Z,20.10
2018-05-10T00:53:46.344Z,20.10
2018-05-10T00:56:13.840Z,20.10
2018-05-10T00:58:42.112Z,20.00
2018-05-10T01:01:10.401Z,20.00
2018-05-10T01:03:38.689Z,20.00
2018-05-10T01:06:06.984Z,20.00
2018-05-10T01:08:35.312Z,20.00
2018-05-10T01:11:02.850Z,19.90
2018-05-10T01:13:31.367Z,19.90
2018-05-10T01:15:58.910Z,19.90
2018-05-10T01:18:27.173Z,19.90
2018-05-10T01:20:54.892Z,19.80
2018-05-10T01:23:22.384Z,19.90
2018-05-10T01:25:49.868Z,19.80
2018-05-10T01:28:17.398Z,19.80
2018-05-10T01:30:45.114Z,19.80
2018-05-10T01:33:12.711Z,19.80
2018-05-10T01:35:52.046Z,19.80
2018-05-10T01:38:19.574Z,19.80
2018-05-10T01:40:47.106Z,19.70
2018-05-10T01:43:14.634Z,19.80
2018-05-10T01:45:42.129Z,19.80
2018-05-10T01:48:09.732Z,19.70
2018-05-10T01:50:37.990Z,19.70
2018-05-10T01:53:05.588Z,19.70
2018-05-10T01:55:33.887Z,19.70
2018-05-10T01:58:02.193Z,19.60
2018-05-10T02:00:29.696Z,19.60
2018-05-10T02:02:57.258Z,19.70
2018-05-10T02:05:24.782Z,19.60
2018-05-10T02:07:53.077Z,19.60
2018-05-10T02:10:20.577Z,19.60
2018-05-10T02:12:48.265Z,19.60
2018-05-10T02:15:15.828Z,19.60
2018-05-10T02:17:43.330Z,19.60
2018-05-10T02:20:10.845Z,19.60
2018-05-10T02:22:38.522Z,19.60
2018-05-10T02:25:06.092Z,19.60
2018-05-10T02:27:33.593Z,19.60
2018-05-10T02:30:01.229Z,19.60
2018-05-10T02:32:28.737Z,19.50
2018-05-10T02:34:56.264Z,19.50
2018-05-10T02:37:24.557Z,19.50
2018-05-10T02:39:53.476Z,19.40
2018-05-10T02:42:21.177Z,19.40
2018-05-10T02:44:48.699Z,19.40
2018-05-10T02:47:16.323Z,19.30
2018-05-10T02:49:43.851Z,19.20
2018-05-10T02:52:12.233Z,19.20
2018-05-10T02:54:40.613Z,19.20
2018-05-10T02:57:08.196Z,19.10
2018-05-10T02:59:36.505Z,19.20
2018-05-10T03:02:04.647Z,19.20
2018-05-10T03:04:32.919Z,19.10
2018-05-10T03:07:00.431Z,19.10
2018-05-10T03:09:27.956Z,19.20
2018-05-10T03:11:55.515Z,19.20
2018-05-10T03:14:23.039Z,19.20
2018-05-10T03:16:51.333Z,19.20
2018-05-10T03:19:19.627Z,19.20
2018-05-10T03:21:47.923Z,19.20
2018-05-10T03:24:15.491Z,19.20
2018-05-10T03:26:43.069Z,19.20
2018-05-10T03:29:11.427Z,19.10
2018-05-10T03:31:38.968Z,19.20
2018-05-10T03:34:06.489Z,19.20
2018-05-10T03:36:34.800Z,19.10
2018-05-10T03:39:02.363Z,19.10
2018-05-10T03:41:29.958Z,19.10
2018-05-10T03:43:57.478Z,19.10
2018-05-10T03:46:25.122Z,19.10
2018-05-10T03:48:52.596Z,19.10
2018-05-10T03:51:20.304Z,19.10
2018-05-10T03:53:48.573Z,19.10
2018-05-10T03:56:16.157Z,19.10
2018-05-10T03:58:44.475Z,19.00
2018-05-10T04:01:12.178Z,19.00
2018-05-10T04:03:51.671Z,19.00
2018-05-10T04:06:31.031Z,19.00
2018-05-10T04:09:11.099Z,18.90
2018-05-10T04:11:39.378Z,18.90
2018-05-10T04:14:07.660Z,18.90
2018-05-10T04:16:35.335Z,18.80
2018-05-10T04:19:02.926Z,18.90
2018-05-10T04:21:31.212Z,18.90
2018-05-10T04:23:59.620Z,18.90
2018-05-10T04:26:27.178Z,18.90
2018-05-10T04:28:55.560Z,18.90
2018-05-10T04:31:23.859Z,19.00
2018-05-10T04:33:51.420Z,19.00
2018-05-10T04:36:19.655Z,19.00
2018-05-10T04:38:47.355Z,19.00
2018-05-10T04:41:14.853Z,19.00
2018-05-10T04:43:42.385Z,19.00
2018-05-10T04:46:09.895Z,19.00
2018-05-10T04:48:38.198Z,19.00
2018-05-10T04:51:05.987Z,19.00
2018-05-10T04:53:33.509Z,19.00
2018-05-10T04:56:01.065Z,19.00
2018-05-10T04:58:28.665Z,19.00
2018-05-10T05:00:56.433Z,19.00
2018-05-10T05:03:24.062Z,19.10
2018-05-10T05:05:52.489Z,19.10
2018-05-10T05:08:20.202Z,19.10
2018-05-10T05:10:48.476Z,19.20
2018-05-10T05:13:16.735Z,19.20
2018-05-10T05:15:44.445Z,19.20
2018-05-10T05:18:12.785Z,19.20
2018-05-10T05:20:40.493Z,19.20
2018-05-10T05:23:08.459Z,19.20
2018-05-10T05:25:36.594Z,19.20
2018-05-10T05:28:04.133Z,19.30
2018-05-10T05:30:31.676Z,19.30
2018-05-10T05:32:59.223Z,19.30
2018-05-10T05:35:26.815Z,19.30
2018-05-10T05:37:54.333Z,19.30
2018-05-10T05:40:22.767Z,19.30
2018-05-10T05:42:50.401Z,19.20
2018-05-10T05:45:18.674Z,19.30
2018-05-10T05:47:46.219Z,19.30
2018-05-10T05:50:14.217Z,19.30
2018-05-10T05:52:41.969Z,19.30
2018-05-10T05:55:09.613Z,19.30
2018-05-10T05:57:37.120Z,19.40
2018-05-10T06:00:04.698Z,19.40
2018-05-10T06:02:32.247Z,19.40
2018-05-10T06:04:59.879Z,19.40
2018-05-10T06:07:28.147Z,19.50
2018-05-10T06:09:56.258Z,19.40
2018-05-10T06:12:23.818Z,19.50
2018-05-10T06:14:51.393Z,19.60
2018-05-10T06:17:19.656Z,19.70
2018-05-10T06:19:48.192Z,19.70
2018-05-10T06:22:15.898Z,19.70
2018-05-10T06:24:43.528Z,19.70
2018-05-10T06:27:10.984Z,19.80
2018-05-10T06:29:38.532Z,19.80
2018-05-10T06:32:06.659Z,19.80
2018-05-10T06:34:34.335Z,19.80
2018-05-10T06:37:02.592Z,19.80
2018-05-10T06:39:30.209Z,19.80
2018-05-10T06:41:58.559Z,19.90
2018-05-10T06:44:26.163Z,19.90
2018-05-10T06:46:53.926Z,20.00
2018-05-10T06:49:21.525Z,20.00
2018-05-10T06:51:49.046Z,20.10
2018-05-10T06:54:16.543Z,20.10
2018-05-10T06:56:44.181Z,20.10
2018-05-10T06:59:11.678Z,20.10
2018-05-10T07:01:39.976Z,20.00
2018-05-10T07:04:07.538Z,20.00
2018-05-10T07:06:35.805Z,20.10
2018-05-10T07:09:03.405Z,20.10
2018-05-10T07:11:31.037Z,20.10
2018-05-10T07:13:58.573Z,20.00
2018-05-10T07:16:26.099Z,20.00
2018-05-10T07:18:54.406Z,20.00
2018-05-10T07:21:21.999Z,20.00
2018-05-10T07:23:49.628Z,20.00
2018-05-10T07:26:17.244Z,20.00
2018-05-10T07:28:44.763Z,20.00
2018-05-10T07:31:12.260Z,20.10
2018-05-10T07:33:40.548Z,20.20
2018-05-10T07:36:08.831Z,20.30
2018-05-10T07:38:36.354Z,20.30
2018-05-10T07:41:03.861Z,20.30
2018-05-10T07:43:31.473Z,20.40
2018-05-10T07:45:58.988Z,20.50
2018-05-10T07:48:26.601Z,20.60
2018-05-10T07:50:54.856Z,20.90
2018-05-10T07:53:23.379Z,21.00
2018-05-10T07:55:51.008Z,21.00
2018-05-10T07:58:18.598Z,21.00
2018-05-10T08:00:46.137Z,21.10
2018-05-10T08:03:13.864Z,21.20
2018-05-10T08:05:42.164Z,21.30
2018-05-10T08:08:10.421Z,21.40
2018-05-10T08:10:37.996Z,21.40
2018-05-10T08:13:05.617Z,21.50
2018-05-10T08:15:33.268Z,21.60
2018-05-10T08:18:00.786Z,21.60
2018-05-10T08:20:28.363Z,21.60
2018-05-10T08:22:55.960Z,21.80
2018-05-10T08:25:23.554Z,21.80
2018-05-10T08:27:51.127Z,21.90
2018-05-10T08:30:19.575Z,22.10
2018-05-10T08:32:47.167Z,22.10
2018-05-10T08:35:14.701Z,22.20
2018-05-10T08:37:42.225Z,22.30
2018-05-10T08:40:10.530Z,22.50
2018-05-10T08:42:38.965Z,22.60
2018-05-10T08:45:06.500Z,22.60
2018-05-10T08:47:34.003Z,22.60
2018-05-10T08:50:01.599Z,22.70
2018-05-10T08:52:29.536Z,22.90
2018-05-10T08:54:57.293Z,22.90
2018-05-10T08:57:24.823Z,23.00
2018-05-10T08:59:52.473Z,23.10
2018-05-10T09:02:19.935Z,23.10
2018-05-10T09:04:47.555Z,23.20
2018-05-10T09:07:16.036Z,23.50
2018-05-10T09:09:43.582Z,23.50
2018-05-10T09:12:11.191Z,23.60
2018-05-10T09:14:40.233Z,23.80
2018-05-10T09:17:07.879Z,23.80
2018-05-10T09:19:36.189Z,24.10
2018-05-10T09:22:03.772Z,24.10
2018-05-10T09:24:31.362Z,24.20
2018-05-10T09:26:59.065Z,24.40
2018-05-10T09:29:26.576Z,24.50
2018-05-10T09:31:54.213Z,24.60
2018-05-10T09:34:21.867Z,24.70
2018-05-10T09:36:49.996Z,25.00
2018-05-10T09:39:17.653Z,25.10
2018-05-10T09:41:45.405Z,25.20
2018-05-10T09:44:12.975Z,25.40
2018-05-10T09:46:40.620Z,25.50
2018-05-10T09:49:08.281Z,25.50
2018-05-10T09:51:35.853Z,25.50
2018-05-10T09:54:03.388Z,25.60
2018-05-10T09:56:31.866Z,25.70
2018-05-10T09:58:59.740Z,25.80
2018-05-10T10:01:27.361Z,25.90
2018-05-10T10:03:55.860Z,26.20
2018-05-10T10:06:23.363Z,26.20
2018-05-10T10:08:50.987Z,26.30
2018-05-10T10:11:19.330Z,26.30
2018-05-10T10:13:46.986Z,26.20
2018-05-10T10:16:14.535Z,26.30
2018-05-10T10:18:42.100Z,26.50
2018-05-10T10:21:10.399Z,26.80
2018-05-10T10:23:37.998Z,26.70
2018-05-10T10:26:05.519Z,27.00
2018-05-10T10:28:33.794Z,27.00
2018-05-10T10:31:01.442Z,26.90
2018-05-10T10:33:28.994Z,27.20
2018-05-10T10:35:56.552Z,27.40
2018-05-10T10:38:24.075Z,27.60
2018-05-10T10:40:51.744Z,27.80
2018-05-10T10:43:19.233Z,28.00
2018-05-10T10:45:47.537Z,28.60
2018-05-10T10:48:15.850Z,29.00
2018-05-10T10:50:43.400Z,28.90
2018-05-10T10:53:11.727Z,29.30
2018-05-10T10:55:39.259Z,29.40
2018-05-10T10:58:07.568Z,29.70
2018-05-10T11:00:35.094Z,29.70
2018-05-10T11:03:02.685Z,30.00
2018-05-10T11:05:31.003Z,30.20
2018-05-10T11:07:58.523Z,30.20
2018-05-10T11:10:27.327Z,30.50
2018-05-10T11:12:54.888Z,30.40
2018-05-10T11:15:22.407Z,30.20
2018-05-10T11:17:50.045Z,30.00
2018-05-10T11:20:17.576Z,29.90
2018-05-10T11:22:45.172Z,29.80
2018-05-10T11:25:12.697Z,29.60
2018-05-10T11:27:40.217Z,29.60
2018-05-10T11:30:08.629Z,29.70
2018-05-10T11:32:36.911Z,29.60
2018-05-10T11:35:04.462Z,29.60
2018-05-10T11:37:32.687Z,29.30
2018-05-10T11:40:01.004Z,29.10
2018-05-10T11:42:28.517Z,29.10
2018-05-10T11:44:56.036Z,28.90
2018-05-10T11:47:23.576Z,28.80
2018-05-10T11:49:51.954Z,28.70
2018-05-10T11:52:19.453Z,28.70
2018-05-10T11:54:47.844Z,28.80
2018-05-10T11:57:16.148Z,28.80
2018-05-10T11:59:43.684Z,28.80
2018-05-10T12:02:11.986Z,29.10
2018-05-10T12:04:40.266Z,29.30
2018-05-10T12:07:08.628Z,29.30
2018-05-10T12:09:36.247Z,29.30
2018-05-10T12:12:03.824Z,29.30
2018-05-10T12:14:31.502Z,29.20
2018-05-10T12:16:59.004Z,29.30
2018-05-10T12:19:26.547Z,29.40
2018-05-10T12:21:54.178Z,29.30
2018-05-10T12:24:21.686Z,29.10
2018-05-10T12:26:49.430Z,29.10
2018-05-10T12:29:17.001Z,29.10
2018-05-10T12:31:44.606Z,29.20
2018-05-10T12:34:13.158Z,29.20
2018-05-10T12:36:40.769Z,29.10
2018-05-10T12:39:08.452Z,29.40
2018-05-10T12:41:36.028Z,29.70
2018-05-10T12:44:03.804Z,29.60
2018-05-10T12:46:31.366Z,29.80
2018-05-10T12:48:59.057Z,29.90
2018-05-10T12:51:26.555Z,29.90
2018-05-10T12:53:55.074Z,29.90
2018-05-10T12:56:22.799Z,30.00
2018-05-10T12:58:50.465Z,30.00
2018-05-10T13:01:18.004Z,30.00
2018-05-10T13:06:19.330Z,29.90
2018-05-10T13:08:46.844Z,29.90
2018-05-10T13:11:14.344Z,30.00
2018-05-10T13:13:42.741Z,29.80
2018-05-10T13:16:11.071Z,29.80
2018-05-10T13:18:38.577Z,29.80
2018-05-10T13:21:06.283Z,29.70
2018-05-10T13:23:33.790Z,29.80
2018-05-10T13:26:01.324Z,29.90
2018-05-10T13:28:28.884Z,30.20
2018-05-10T13:30:56.440Z,30.30
2018-05-10T13:33:24.758Z,30.70
2018-05-10T13:35:52.391Z,30.70
2018-05-10T13:38:20.009Z,30.90
2018-05-10T13:40:47.676Z,31.00
2018-05-10T13:43:15.182Z,30.80
2018-05-10T13:45:42.704Z,30.80
2018-05-10T13:48:11.109Z,30.90
2018-05-10T13:50:38.712Z,30.80
2018-05-10T13:53:06.306Z,30.80
2018-05-10T13:55:33.808Z,30.70
2018-05-10T13:58:02.225Z,30.50
2018-05-10T14:00:29.804Z,30.40
2018-05-10T14:02:57.433Z,30.30
2018-05-10T14:05:26.151Z,30.10
2018-05-10T14:07:53.637Z,30.10
2018-05-10T14:10:21.186Z,30.00
2018-05-10T14:12:48.974Z,29.80
2018-05-10T14:15:16.924Z,29.70
2018-05-10T14:17:44.504Z,29.80
2018-05-10T14:20:12.975Z,29.90
2018-05-10T14:22:40.483Z,29.90
2018-05-10T14:25:08.061Z,29.90
2018-05-10T14:27:35.571Z,29.80
2018-05-10T14:30:03.199Z,29.90
2018-05-10T14:32:30.767Z,29.90
2018-05-10T14:34:58.288Z,30.00
2018-05-10T14:37:26.486Z,30.10
2018-05-10T14:39:53.977Z,30.10
2018-05-10T14:42:22.278Z,30.00
2018-05-10T14:44:50.575Z,29.90
2018-05-10T14:47:18.159Z,29.90
2018-05-10T14:49:45.800Z,29.90
2018-05-10T14:52:14.084Z,29.80
2018-05-10T14:54:42.351Z,29.70
2018-05-10T14:57:09.962Z,29.70
2018-05-10T14:59:38.255Z,29.70
2018-05-10T15:02:06.862Z,29.70
2018-05-10T15:04:34.431Z,29.70
2018-05-10T15:07:01.959Z,29.50
2018-05-10T15:09:29.679Z,29.50
2018-05-10T15:11:57.217Z,29.40
2018-05-10T15:14:24.824Z,29.30
2018-05-10T15:16:52.344Z,29.30
2018-05-10T15:19:19.872Z,29.20
2018-05-10T15:21:47.394Z,29.30
2018-05-10T15:24:15.402Z,29.30
2018-05-10T15:26:43.706Z,29.50
2018-05-10T15:29:11.342Z,29.50
2018-05-10T15:31:39.089Z,29.60
2018-05-10T15:34:07.383Z,29.30
2018-05-10T15:36:35.003Z,29.30
2018-05-10T15:39:03.305Z,29.10
2018-05-10T15:41:30.859Z,29.10
2018-05-10T15:43:59.163Z,28.90
2018-05-10T15:46:26.725Z,28.90
2018-05-10T15:48:54.221Z,28.70
2018-05-10T15:51:21.779Z,28.40
2018-05-10T15:53:49.310Z,28.20
2018-05-10T15:56:16.833Z,27.90
2018-05-10T15:58:44.425Z,27.80
2018-05-10T16:01:13.103Z,27.60
2018-05-10T16:03:40.605Z,27.40
2018-05-10T16:06:08.115Z,27.30
2018-05-10T16:08:35.641Z,27.20
2018-05-10T16:11:03.221Z,27.10
2018-05-10T16:13:31.523Z,26.80
2018-05-10T16:15:59.037Z,26.70
2018-05-10T16:18:26.985Z,26.60
2018-05-10T16:20:55.291Z,26.30
2018-05-10T16:23:22.855Z,26.30
2018-05-10T16:25:51.184Z,26.10
2018-05-10T16:28:18.749Z,26.10
2018-05-10T16:30:46.316Z,25.90
2018-05-10T16:33:13.827Z,25.70
2018-05-10T16:35:41.446Z,25.60
2018-05-10T16:38:09.046Z,25.50
2018-05-10T16:40:36.583Z,25.30
2018-05-10T16:43:04.168Z,25.10
2018-05-10T16:45:31.828Z,24.80
2018-05-10T16:47:59.455Z,24.60
2018-05-10T16:50:26.983Z,24.40
2018-05-10T16:52:54.544Z,24.30
2018-05-10T16:55:22.130Z,24.20
2018-05-10T16:57:49.751Z,24.10
2018-05-10T17:00:18.084Z,24.10
2018-05-10T17:02:46.190Z,24.00
2018-05-10T17:05:13.738Z,23.90
2018-05-10T17:07:41.252Z,23.80
2018-05-10T17:10:08.791Z,23.70
2018-05-10T17:12:36.884Z,23.50
2018-05-10T17:15:05.308Z,23.30
2018-05-10T17:17:33.144Z,23.20
2018-05-10T17:20:00.650Z,23.10
2018-05-10T17:22:28.184Z,23.10
2018-05-10T17:24:55.935Z,23.10
2018-05-10T17:27:23.457Z,23.10
2018-05-10T17:29:51.110Z,23.00
2018-05-10T17:32:18.669Z,23.00
2018-05-10T17:34:47.063Z,23.00
2018-05-10T17:37:14.616Z,23.00
2018-05-10T17:39:43.480Z,23.10
2018-05-10T17:42:11.004Z,23.00
2018-05-10T17:44:38.528Z,23.10
2018-05-10T17:47:06.166Z,23.10
2018-05-10T17:49:33.706Z,23.20
2018-05-10T17:52:02.001Z,23.30
2018-05-10T17:54:30.255Z,23.20
2018-05-10T17:56:58.600Z,23.30
2018-05-10T17:59:26.143Z,23.30
2018-05-10T18:01:54.455Z,23.30
2018-05-10T18:04:21.983Z,23.30
2018-05-10T18:06:49.551Z,23.30
2018-05-10T18:09:17.680Z,23.20
2018-05-10T18:11:45.228Z,23.20
2018-05-10T18:14:13.499Z,22.70
2018-05-10T18:16:41.210Z,22.60
2018-05-10T18:19:08.778Z,21.90
2018-05-10T18:21:36.286Z,21.40
2018-05-10T18:24:03.995Z,21.00
2018-05-10T18:26:32.387Z,20.50
2018-05-10T18:29:00.076Z,20.40
2018-05-10T18:31:28.360Z,20.30
2018-05-10T18:33:56.768Z,20.30
2018-05-10T18:36:24.962Z,20.20
2018-05-10T18:38:52.518Z,20.20
2018-05-10T18:41:20.847Z,20.10
2018-05-10T18:43:48.451Z,20.10
2018-05-10T18:46:15.991Z,20.10
2018-05-10T18:48:43.539Z,20.10
2018-05-10T18:51:11.079Z,20.10
2018-05-10T18:53:39.383Z,20.00
2018-05-10T18:56:06.941Z,20.00
2018-05-10T18:58:35.246Z,19.80
2018-05-10T19:01:03.597Z,19.80
2018-05-10T19:03:31.198Z,19.80
2018-05-10T19:05:59.516Z,19.90
2018-05-10T19:08:27.036Z,19.90
2018-05-10T19:10:54.675Z,19.90
2018-05-10T19:13:22.317Z,19.90
2018-05-10T19:15:49.957Z,19.90
2018-05-10T19:18:17.503Z,19.90
2018-05-10T19:20:45.768Z,19.80
2018-05-10T19:23:13.324Z,19.80
2018-05-10T19:25:40.857Z,19.70
2018-05-10T19:28:08.446Z,19.80
2018-05-10T19:30:36.743Z,19.60
2018-05-10T19:33:04.358Z,19.60
2018-05-10T19:35:31.872Z,19.50
2018-05-10T19:37:59.422Z,19.40
2018-05-10T19:40:27.046Z,19.30
2018-05-10T19:42:54.608Z,19.20
2018-05-10T19:45:22.955Z,19.20
2018-05-10T19:47:50.469Z,19.20
2018-05-10T19:50:18.201Z,19.30
2018-05-10T19:52:45.724Z,19.10
2018-05-10T19:55:13.299Z,19.00
2018-05-10T19:57:40.969Z,19.00
2018-05-10T20:00:08.492Z,18.90
2018-05-10T20:02:36.173Z,18.80
2018-05-10T20:05:03.879Z,18.80
2018-05-10T20:07:32.257Z,18.80
2018-05-10T20:10:00.768Z,18.80
2018-05-10T20:12:28.325Z,18.70
2018-05-10T20:14:55.862Z,18.70
2018-05-10T20:17:23.395Z,18.70
2018-05-10T20:19:50.941Z,18.70
2018-05-10T20:22:19.253Z,18.70
2018-05-10T20:24:46.816Z,18.70
2018-05-10T20:27:14.426Z,18.70
2018-05-10T20:29:42.223Z,18.70
2018-05-10T20:32:09.853Z,18.70
2018-05-10T20:34:37.418Z,18.70
2018-05-10T20:37:04.987Z,18.60
2018-05-10T20:39:32.549Z,18.50
2018-05-10T20:42:00.061Z,18.50
2018-05-10T20:44:27.852Z,18.50
2018-05-10T20:46:55.486Z,18.40
2018-05-10T20:49:22.997Z,18.30
2018-05-10T20:51:50.613Z,18.30
2018-05-10T20:54:18.137Z,18.20
2018-05-10T20:56:45.759Z,18.20
2018-05-10T20:59:13.278Z,18.30
2018-05-10T21:01:40.851Z,18.20
2018-05-10T21:04:08.378Z,18.20
2018-05-10T21:06:35.905Z,18.20
2018-05-10T21:09:03.442Z,18.20
2018-05-10T21:11:30.987Z,18.10
2018-05-10T21:13:58.554Z,18.10
2018-05-10T21:16:26.237Z,18.10
2018-05-10T21:18:53.677Z,18.10
2018-05-10T21:21:21.225Z,18.10
2018-05-10T21:23:48.838Z,18.00
2018-05-10T21:26:17.286Z,17.90
2018-05-10T21:28:44.841Z,17.90
2018-05-10T21:31:12.499Z,17.90
2018-05-10T21:33:40.135Z,17.90
2018-05-10T21:36:08.408Z,17.80
2018-05-10T21:38:36.006Z,17.80
2018-05-10T21:41:04.304Z,17.70
2018-05-10T21:43:31.913Z,17.70
2018-05-10T21:45:59.485Z,17.60
2018-05-10T21:48:27.032Z,17.60
2018-05-10T21:50:54.560Z,17.50
2018-05-10T21:53:22.357Z,17.50
2018-05-10T21:55:49.816Z,17.40
2018-05-10T21:58:18.137Z,17.30
2018-05-10T22:00:45.634Z,17.30
2018-05-10T22:03:13.248Z,17.30
2018-05-10T22:05:41.545Z,17.20
2018-05-10T22:08:09.111Z,17.20
2018-05-10T22:10:37.381Z,17.10
2018-05-10T22:13:04.923Z,17.10
2018-05-10T22:15:32.461Z,17.10
2018-05-10T22:18:00.008Z,17.00
2018-05-10T22:20:28.304Z,17.00
2018-05-10T22:22:56.818Z,17.00
2018-05-10T22:25:24.696Z,17.00
2018-05-10T22:27:52.192Z,16.90
2018-05-10T22:30:19.732Z,16.90
2018-05-10T22:32:47.376Z,16.90
2018-05-10T22:35:15.040Z,16.90
2018-05-10T22:37:42.492Z,16.90
2018-05-10T22:40:10.081Z,16.90
2018-05-10T22:42:39.215Z,16.70
2018-05-10T22:45:07.503Z,16.90
2018-05-10T22:47:35.778Z,17.10
2018-05-10T22:50:03.588Z,17.10
2018-05-10T22:52:31.269Z,17.20
2018-05-10T22:54:58.778Z,17.40
2018-05-10T22:57:26.334Z,17.50
2018-05-10T22:59:54.642Z,17.60
2018-05-10T23:02:22.314Z,17.50
2018-05-10T23:04:49.838Z,17.60
2018-05-10T23:07:17.336Z,17.80
2018-05-10T23:09:44.967Z,17.80
2018-05-10T23:12:12.549Z,17.80
2018-05-10T23:14:40.197Z,17.80
2018-05-10T23:17:07.869Z,17.60
2018-05-10T23:19:35.431Z,17.70
2018-05-10T23:22:03.262Z,17.70
2018-05-10T23:24:31.816Z,17.60
2018-05-10T23:27:00.330Z,17.50
2018-05-10T23:29:27.957Z,17.50
2018-05-10T23:31:55.557Z,17.40
2018-05-10T23:34:23.999Z,17.40
2018-05-10T23:36:51.648Z,17.40
2018-05-10T23:39:19.253Z,17.40
2018-05-10T23:41:46.810Z,17.30
2018-05-10T23:44:14.362Z,17.10
2018-05-10T23:46:42.038Z,16.90
2018-05-10T23:49:09.555Z,16.70
2018-05-10T23:51:37.103Z,16.60
2018-05-10T23:54:04.637Z,16.50
2018-05-10T23:56:33.177Z,16.30
2018-05-10T23:59:00.671Z,16.30
